sensor_id;sensor_type;location;lat;lon;timestamp;temperature;humidity
76967;DHT22;65904;52.278;20.972;2023-04-28T00:00:19;4.90;99.90
76967;DHT22;65904;52.278;20.972;2023-04-28T00:03:17;4.90;99.90
76967;DHT22;65904;52.278;20.972;2023-04-28T00:06:03;4.80;99.90
76967;DHT22;65904;52.278;20.972;2023-04-28T00:08:49;4.70;99.90
76967;DHT22;65904;52.278;20.972;2023-04-28T00:11:35;4.70;99.90
76967;DHT22;65904;52.278;20.972;2023-04-28T00:14:23;4.60;99.90
76967;DHT22;65904;52.278;20.972;2023-04-28T00:17:09;4.60;99.90
76967;DHT22;65904;52.278;20.972;2023-04-28T00:19:55;4.60;99.90
76967;DHT22;65904;52.278;20.972;2023-04-28T00:22:42;4.50;99.90
76967;DHT22;65904;52.278;20.972;2023-04-28T00:25:28;4.50;99.90
76967;DHT22;65904;52.278;20.972;2023-04-28T00:28:14;4.40;99.90
76967;DHT22;65904;52.278;20.972;2023-04-28T00:31:08;4.40;99.90
76967;DHT22;65904;52.278;20.972;2023-04-28T00:33:54;4.30;99.90
76967;DHT22;65904;52.278;20.972;2023-04-28T00:36:41;4.20;99.90
76967;DHT22;65904;52.278;20.972;2023-04-28T00:39:27;4.30;99.90
76967;DHT22;65904;52.278;20.972;2023-04-28T00:42:14;4.30;99.90
76967;DHT22;65904;52.278;20.972;2023-04-28T00:44:59;4.10;99.90
76967;DHT22;65904;52.278;20.972;2023-04-28T00:47:52;4.00;99.90
76967;DHT22;65904;52.278;20.972;2023-04-28T00:50:38;3.90;99.90
76967;DHT22;65904;52.278;20.972;2023-04-28T00:53:25;3.80;99.90
76967;DHT22;65904;52.278;20.972;2023-04-28T00:56:12;3.80;99.90
76967;DHT22;65904;52.278;20.972;2023-04-28T00:58:58;3.90;99.90
76967;DHT22;65904;52.278;20.972;2023-04-28T01:01:44;3.90;99.90
76967;DHT22;65904;52.278;20.972;2023-04-28T01:04:32;3.80;99.90
76967;DHT22;65904;52.278;20.972;2023-04-28T01:07:18;3.80;99.90
76967;DHT22;65904;52.278;20.972;2023-04-28T01:10:06;3.80;99.90
76967;DHT22;65904;52.278;20.972;2023-04-28T01:12:53;3.80;99.90
76967;DHT22;65904;52.278;20.972;2023-04-28T01:15:40;3.70;99.90
76967;DHT22;65904;52.278;20.972;2023-04-28T01:18:26;3.60;99.90
76967;DHT22;65904;52.278;20.972;2023-04-28T01:21:14;3.50;99.90
76967;DHT22;65904;52.278;20.972;2023-04-28T01:24:14;3.40;99.90
76967;DHT22;65904;52.278;20.972;2023-04-28T01:27:00;3.20;99.90
76967;DHT22;65904;52.278;20.972;2023-04-28T01:29:47;3.10;99.90
76967;DHT22;65904;52.278;20.972;2023-04-28T01:32:33;3.00;99.90
76967;DHT22;65904;52.278;20.972;2023-04-28T01:35:20;3.00;99.90
76967;DHT22;65904;52.278;20.972;2023-04-28T01:38:07;2.90;99.90
76967;DHT22;65904;52.278;20.972;2023-04-28T01:40:55;2.80;99.90
76967;DHT22;65904;52.278;20.972;2023-04-28T01:43:43;2.70;99.90
76967;DHT22;65904;52.278;20.972;2023-04-28T01:46:29;2.80;99.90
76967;DHT22;65904;52.278;20.972;2023-04-28T01:49:16;2.80;99.90
76967;DHT22;65904;52.278;20.972;2023-04-28T01:52:02;2.80;99.90
76967;DHT22;65904;52.278;20.972;2023-04-28T01:54:49;2.90;99.90
76967;DHT22;65904;52.278;20.972;2023-04-28T01:57:36;3.00;99.90
76967;DHT22;65904;52.278;20.972;2023-04-28T02:00:23;3.20;99.90
76967;DHT22;65904;52.278;20.972;2023-04-28T02:03:09;3.20;99.90
76967;DHT22;65904;52.278;20.972;2023-04-28T02:05:56;3.20;99.90
76967;DHT22;65904;52.278;20.972;2023-04-28T02:08:43;3.10;99.90
76967;DHT22;65904;52.278;20.972;2023-04-28T02:11:31;3.10;99.90
76967;DHT22;65904;52.278;20.972;2023-04-28T02:14:18;3.10;99.90
76967;DHT22;65904;52.278;20.972;2023-04-28T02:17:05;3.20;99.90
76967;DHT22;65904;52.278;20.972;2023-04-28T02:19:54;3.20;99.90
76967;DHT22;65904;52.278;20.972;2023-04-28T02:22:41;3.20;99.90
76967;DHT22;65904;52.278;20.972;2023-04-28T02:25:27;3.30;99.90
76967;DHT22;65904;52.278;20.972;2023-04-28T02:28:13;3.30;99.90
76967;DHT22;65904;52.278;20.972;2023-04-28T02:31:05;3.20;99.90
76967;DHT22;65904;52.278;20.972;2023-04-28T02:33:51;3.00;99.90
76967;DHT22;65904;52.278;20.972;2023-04-28T02:36:38;2.90;99.90
76967;DHT22;65904;52.278;20.972;2023-04-28T02:39:25;2.90;99.90
76967;DHT22;65904;52.278;20.972;2023-04-28T02:42:14;2.70;99.90
76967;DHT22;65904;52.278;20.972;2023-04-28T02:45:01;2.60;99.90
76967;DHT22;65904;52.278;20.972;2023-04-28T02:47:48;2.60;99.90
76967;DHT22;65904;52.278;20.972;2023-04-28T02:50:35;2.60;99.90
76967;DHT22;65904;52.278;20.972;2023-04-28T02:53:21;2.70;99.90
76967;DHT22;65904;52.278;20.972;2023-04-28T02:56:08;2.70;99.90
76967;DHT22;65904;52.278;20.972;2023-04-28T02:58:54;2.70;99.90
76967;DHT22;65904;52.278;20.972;2023-04-28T03:01:40;2.80;99.90
76967;DHT22;65904;52.278;20.972;2023-04-28T03:04:28;2.80;99.90
76967;DHT22;65904;52.278;20.972;2023-04-28T03:07:14;3.00;99.90
76967;DHT22;65904;52.278;20.972;2023-04-28T03:10:01;3.00;99.90
76967;DHT22;65904;52.278;20.972;2023-04-28T03:12:47;3.20;99.90
76967;DHT22;65904;52.278;20.972;2023-04-28T03:15:34;3.20;99.90
76967;DHT22;65904;52.278;20.972;2023-04-28T03:18:20;3.10;99.90
76967;DHT22;65904;52.278;20.972;2023-04-28T03:21:08;3.10;99.90
76967;DHT22;65904;52.278;20.972;2023-04-28T03:23:54;3.00;99.90
76967;DHT22;65904;52.278;20.972;2023-04-28T03:26:40;2.90;99.90
76967;DHT22;65904;52.278;20.972;2023-04-28T03:29:27;2.90;99.90
76967;DHT22;65904;52.278;20.972;2023-04-28T03:32:13;3.00;99.90
76967;DHT22;65904;52.278;20.972;2023-04-28T03:34:59;3.10;99.90
76967;DHT22;65904;52.278;20.972;2023-04-28T03:37:47;3.10;99.90
76967;DHT22;65904;52.278;20.972;2023-04-28T03:40:34;3.20;99.90
76967;DHT22;65904;52.278;20.972;2023-04-28T03:43:43;3.20;99.90
76967;DHT22;65904;52.278;20.972;2023-04-28T03:46:37;3.10;99.90
76967;DHT22;65904;52.278;20.972;2023-04-28T03:49:24;3.00;99.90
76967;DHT22;65904;52.278;20.972;2023-04-28T03:52:10;2.90;99.90
76967;DHT22;65904;52.278;20.972;2023-04-28T03:54:58;2.90;99.90
76967;DHT22;65904;52.278;20.972;2023-04-28T03:57:44;2.90;99.90
76967;DHT22;65904;52.278;20.972;2023-04-28T04:00:31;2.90;99.90
76967;DHT22;65904;52.278;20.972;2023-04-28T04:03:17;2.90;99.90
76967;DHT22;65904;52.278;20.972;2023-04-28T04:06:05;3.10;99.90
76967;DHT22;65904;52.278;20.972;2023-04-28T04:08:52;3.20;99.90
76967;DHT22;65904;52.278;20.972;2023-04-28T04:11:41;3.30;99.90
76967;DHT22;65904;52.278;20.972;2023-04-28T04:14:27;3.30;99.90
76967;DHT22;65904;52.278;20.972;2023-04-28T04:17:13;3.40;99.90
76967;DHT22;65904;52.278;20.972;2023-04-28T04:20:00;3.40;99.90
76967;DHT22;65904;52.278;20.972;2023-04-28T04:22:46;3.50;99.90
76967;DHT22;65904;52.278;20.972;2023-04-28T04:25:33;3.60;99.90
76967;DHT22;65904;52.278;20.972;2023-04-28T04:28:21;3.70;99.90
76967;DHT22;65904;52.278;20.972;2023-04-28T04:31:08;3.80;99.90
76967;DHT22;65904;52.278;20.972;2023-04-28T04:33:54;3.90;99.90
76967;DHT22;65904;52.278;20.972;2023-04-28T04:36:40;3.90;99.90
76967;DHT22;65904;52.278;20.972;2023-04-28T04:39:27;3.90;99.90
76967;DHT22;65904;52.278;20.972;2023-04-28T04:42:13;3.90;99.90
76967;DHT22;65904;52.278;20.972;2023-04-28T04:45:07;4.00;99.90
76967;DHT22;65904;52.278;20.972;2023-04-28T04:47:54;4.10;99.90
76967;DHT22;65904;52.278;20.972;2023-04-28T04:50:41;4.20;99.90
76967;DHT22;65904;52.278;20.972;2023-04-28T04:53:28;4.20;99.90
76967;DHT22;65904;52.278;20.972;2023-04-28T04:56:15;4.50;99.90
76967;DHT22;65904;52.278;20.972;2023-04-28T04:59:02;4.50;99.90
76967;DHT22;65904;52.278;20.972;2023-04-28T05:02:02;4.60;99.90
76967;DHT22;65904;52.278;20.972;2023-04-28T05:04:48;4.70;99.90
76967;DHT22;65904;52.278;20.972;2023-04-28T05:07:34;4.80;99.90
76967;DHT22;65904;52.278;20.972;2023-04-28T05:10:20;4.80;99.90
76967;DHT22;65904;52.278;20.972;2023-04-28T05:13:07;4.80;99.90
76967;DHT22;65904;52.278;20.972;2023-04-28T05:15:53;4.90;99.90
76967;DHT22;65904;52.278;20.972;2023-04-28T05:19:01;5.00;99.90
76967;DHT22;65904;52.278;20.972;2023-04-28T05:21:47;5.00;99.90
76967;DHT22;65904;52.278;20.972;2023-04-28T05:24:36;5.20;99.90
76967;DHT22;65904;52.278;20.972;2023-04-28T05:27:22;5.20;99.90
76967;DHT22;65904;52.278;20.972;2023-04-28T05:30:09;5.30;99.90
76967;DHT22;65904;52.278;20.972;2023-04-28T05:32:55;5.40;99.90
76967;DHT22;65904;52.278;20.972;2023-04-28T05:35:43;5.40;99.90
76967;DHT22;65904;52.278;20.972;2023-04-28T05:38:29;5.50;99.90
76967;DHT22;65904;52.278;20.972;2023-04-28T05:41:17;5.60;99.90
76967;DHT22;65904;52.278;20.972;2023-04-28T05:44:04;5.70;99.90
76967;DHT22;65904;52.278;20.972;2023-04-28T05:46:50;5.80;99.90
76967;DHT22;65904;52.278;20.972;2023-04-28T05:49:42;5.90;99.90
76967;DHT22;65904;52.278;20.972;2023-04-28T05:52:30;6.00;99.90
76967;DHT22;65904;52.278;20.972;2023-04-28T05:55:17;6.10;99.90
76967;DHT22;65904;52.278;20.972;2023-04-28T05:58:03;6.20;99.90
76967;DHT22;65904;52.278;20.972;2023-04-28T06:00:49;6.30;99.90
76967;DHT22;65904;52.278;20.972;2023-04-28T06:03:36;6.40;99.90
76967;DHT22;65904;52.278;20.972;2023-04-28T06:06:22;6.50;99.90
76967;DHT22;65904;52.278;20.972;2023-04-28T06:09:09;6.70;99.90
76967;DHT22;65904;52.278;20.972;2023-04-28T06:11:55;6.80;99.90
76967;DHT22;65904;52.278;20.972;2023-04-28T06:14:41;6.80;99.90
76967;DHT22;65904;52.278;20.972;2023-04-28T06:17:28;7.00;99.90
76967;DHT22;65904;52.278;20.972;2023-04-28T06:20:15;7.10;99.90
76967;DHT22;65904;52.278;20.972;2023-04-28T06:23:01;7.20;99.90
76967;DHT22;65904;52.278;20.972;2023-04-28T06:25:49;7.30;99.90
76967;DHT22;65904;52.278;20.972;2023-04-28T06:28:35;7.40;99.90
76967;DHT22;65904;52.278;20.972;2023-04-28T06:31:21;7.50;99.90
76967;DHT22;65904;52.278;20.972;2023-04-28T06:34:10;7.60;99.90
76967;DHT22;65904;52.278;20.972;2023-04-28T06:36:57;7.70;99.90
76967;DHT22;65904;52.278;20.972;2023-04-28T06:39:44;7.80;99.90
76967;DHT22;65904;52.278;20.972;2023-04-28T06:42:31;7.90;99.90
76967;DHT22;65904;52.278;20.972;2023-04-28T06:45:25;7.90;99.90
76967;DHT22;65904;52.278;20.972;2023-04-28T06:48:15;8.00;99.90
76967;DHT22;65904;52.278;20.972;2023-04-28T06:51:01;8.20;99.90
76967;DHT22;65904;52.278;20.972;2023-04-28T06:53:47;8.40;99.90
76967;DHT22;65904;52.278;20.972;2023-04-28T06:56:35;8.60;99.90
76967;DHT22;65904;52.278;20.972;2023-04-28T06:59:23;8.60;99.90
76967;DHT22;65904;52.278;20.972;2023-04-28T07:02:09;8.80;99.90
76967;DHT22;65904;52.278;20.972;2023-04-28T07:04:55;8.90;99.90
76967;DHT22;65904;52.278;20.972;2023-04-28T07:07:42;8.90;99.90
76967;DHT22;65904;52.278;20.972;2023-04-28T07:10:28;9.00;99.90
76967;DHT22;65904;52.278;20.972;2023-04-28T07:13:14;9.10;99.30
76967;DHT22;65904;52.278;20.972;2023-04-28T07:16:03;9.20;98.40
76967;DHT22;65904;52.278;20.972;2023-04-28T07:18:50;9.30;98.30
76967;DHT22;65904;52.278;20.972;2023-04-28T07:21:36;9.30;99.10
76967;DHT22;65904;52.278;20.972;2023-04-28T07:24:22;9.40;99.10
76967;DHT22;65904;52.278;20.972;2023-04-28T07:27:08;9.40;95.10
76967;DHT22;65904;52.278;20.972;2023-04-28T07:29:55;9.40;96.20
76967;DHT22;65904;52.278;20.972;2023-04-28T07:32:42;9.60;99.30
76967;DHT22;65904;52.278;20.972;2023-04-28T07:35:28;9.60;93.70
76967;DHT22;65904;52.278;20.972;2023-04-28T07:38:14;9.70;94.00
76967;DHT22;65904;52.278;20.972;2023-04-28T07:41:03;9.80;93.00
76967;DHT22;65904;52.278;20.972;2023-04-28T07:43:48;9.80;94.60
76967;DHT22;65904;52.278;20.972;2023-04-28T07:46:35;9.90;94.40
76967;DHT22;65904;52.278;20.972;2023-04-28T07:49:23;10.00;95.30
76967;DHT22;65904;52.278;20.972;2023-04-28T07:52:09;10.00;88.90
76967;DHT22;65904;52.278;20.972;2023-04-28T07:54:55;10.10;90.10
76967;DHT22;65904;52.278;20.972;2023-04-28T07:57:42;10.20;95.20
76967;DHT22;65904;52.278;20.972;2023-04-28T08:00:27;10.30;85.10
76967;DHT22;65904;52.278;20.972;2023-04-28T08:03:14;10.30;90.10
76967;DHT22;65904;52.278;20.972;2023-04-28T08:06:01;10.40;81.00
76967;DHT22;65904;52.278;20.972;2023-04-28T08:08:48;10.40;81.70
76967;DHT22;65904;52.278;20.972;2023-04-28T08:11:34;10.50;80.80
76967;DHT22;65904;52.278;20.972;2023-04-28T08:14:20;10.90;76.50
76967;DHT22;65904;52.278;20.972;2023-04-28T08:17:06;10.90;73.30
76967;DHT22;65904;52.278;20.972;2023-04-28T08:19:53;10.80;70.50
76967;DHT22;65904;52.278;20.972;2023-04-28T08:22:40;10.90;70.20
76967;DHT22;65904;52.278;20.972;2023-04-28T08:25:26;10.80;60.00
76967;DHT22;65904;52.278;20.972;2023-04-28T08:28:12;10.90;62.90
76967;DHT22;65904;52.278;20.972;2023-04-28T08:30:59;11.10;65.80
76967;DHT22;65904;52.278;20.972;2023-04-28T08:33:45;11.20;61.50
76967;DHT22;65904;52.278;20.972;2023-04-28T08:36:34;11.20;58.00
76967;DHT22;65904;52.278;20.972;2023-04-28T08:39:21;11.30;58.20
76967;DHT22;65904;52.278;20.972;2023-04-28T08:42:10;11.40;61.10
76967;DHT22;65904;52.278;20.972;2023-04-28T08:44:57;11.60;60.40
76967;DHT22;65904;52.278;20.972;2023-04-28T08:47:44;12.40;61.80
76967;DHT22;65904;52.278;20.972;2023-04-28T08:50:33;13.20;51.40
76967;DHT22;65904;52.278;20.972;2023-04-28T08:53:22;13.10;49.70
76967;DHT22;65904;52.278;20.972;2023-04-28T08:56:13;12.90;51.40
76967;DHT22;65904;52.278;20.972;2023-04-28T08:59:02;12.70;50.10
76967;DHT22;65904;52.278;20.972;2023-04-28T09:01:49;14.20;53.80
76967;DHT22;65904;52.278;20.972;2023-04-28T09:04:35;16.00;40.30
76967;DHT22;65904;52.278;20.972;2023-04-28T09:07:21;17.10;42.40
76967;DHT22;65904;52.278;20.972;2023-04-28T09:10:15;16.00;39.80
76967;DHT22;65904;52.278;20.972;2023-04-28T09:13:03;16.10;42.70
76967;DHT22;65904;52.278;20.972;2023-04-28T09:15:49;16.80;37.80
76967;DHT22;65904;52.278;20.972;2023-04-28T09:18:35;16.70;36.30
76967;DHT22;65904;52.278;20.972;2023-04-28T09:21:22;16.10;35.90
76967;DHT22;65904;52.278;20.972;2023-04-28T09:24:08;15.40;38.60
76967;DHT22;65904;52.278;20.972;2023-04-28T09:26:54;14.90;41.60
76967;DHT22;65904;52.278;20.972;2023-04-28T09:29:52;14.30;41.90
76967;DHT22;65904;52.278;20.972;2023-04-28T09:32:39;14.10;43.60
76967;DHT22;65904;52.278;20.972;2023-04-28T09:35:38;14.00;45.00
76967;DHT22;65904;52.278;20.972;2023-04-28T09:38:25;14.40;46.30
76967;DHT22;65904;52.278;20.972;2023-04-28T09:41:11;14.40;45.80
76967;DHT22;65904;52.278;20.972;2023-04-28T09:44:09;14.50;43.70
76967;DHT22;65904;52.278;20.972;2023-04-28T09:46:56;14.20;44.40
76967;DHT22;65904;52.278;20.972;2023-04-28T09:49:52;14.40;44.80
76967;DHT22;65904;52.278;20.972;2023-04-28T09:52:40;14.30;46.10
76967;DHT22;65904;52.278;20.972;2023-04-28T09:55:27;14.30;46.60
76967;DHT22;65904;52.278;20.972;2023-04-28T09:58:16;14.20;46.30
76967;DHT22;65904;52.278;20.972;2023-04-28T10:01:05;14.50;46.00
76967;DHT22;65904;52.278;20.972;2023-04-28T10:03:57;14.90;45.50
76967;DHT22;65904;52.278;20.972;2023-04-28T10:06:44;15.60;44.40
76967;DHT22;65904;52.278;20.972;2023-04-28T10:09:31;16.40;43.50
76967;DHT22;65904;52.278;20.972;2023-04-28T10:12:20;17.00;44.90
76967;DHT22;65904;52.278;20.972;2023-04-28T10:15:07;17.60;40.40
76967;DHT22;65904;52.278;20.972;2023-04-28T10:17:54;17.10;40.00
76967;DHT22;65904;52.278;20.972;2023-04-28T10:20:44;17.10;40.00
76967;DHT22;65904;52.278;20.972;2023-04-28T10:24:09;16.70;41.60
76967;DHT22;65904;52.278;20.972;2023-04-28T10:27:06;17.30;40.10
76967;DHT22;65904;52.278;20.972;2023-04-28T10:29:53;18.50;40.30
76967;DHT22;65904;52.278;20.972;2023-04-28T10:32:39;19.60;41.50
76967;DHT22;65904;52.278;20.972;2023-04-28T10:35:43;20.50;37.20
76967;DHT22;65904;52.278;20.972;2023-04-28T10:38:30;21.30;34.20
76967;DHT22;65904;52.278;20.972;2023-04-28T10:41:30;21.50;34.10
76967;DHT22;65904;52.278;20.972;2023-04-28T10:44:41;21.20;32.80
76967;DHT22;65904;52.278;20.972;2023-04-28T10:47:28;21.80;33.30
76967;DHT22;65904;52.278;20.972;2023-04-28T10:50:33;21.80;33.30
76967;DHT22;65904;52.278;20.972;2023-04-28T10:57:18;21.90;32.70
76967;DHT22;65904;52.278;20.972;2023-04-28T11:00:26;21.90;33.70
76967;DHT22;65904;52.278;20.972;2023-04-28T11:03:39;19.70;32.10
76967;DHT22;65904;52.278;20.972;2023-04-28T11:06:33;18.80;35.10
76967;DHT22;65904;52.278;20.972;2023-04-28T11:09:46;19.70;34.20
76967;DHT22;65904;52.278;20.972;2023-04-28T11:12:33;20.50;32.90
76967;DHT22;65904;52.278;20.972;2023-04-28T11:15:20;21.60;32.00
76967;DHT22;65904;52.278;20.972;2023-04-28T11:18:09;22.80;30.80
76967;DHT22;65904;52.278;20.972;2023-04-28T11:20:59;23.60;30.20
76967;DHT22;65904;52.278;20.972;2023-04-28T11:23:46;24.40;31.70
76967;DHT22;65904;52.278;20.972;2023-04-28T11:26:36;22.80;29.10
76967;DHT22;65904;52.278;20.972;2023-04-28T11:29:30;22.60;29.40
76967;DHT22;65904;52.278;20.972;2023-04-28T11:32:25;21.00;31.10
76967;DHT22;65904;52.278;20.972;2023-04-28T11:35:11;22.50;31.50
76967;DHT22;65904;52.278;20.972;2023-04-28T11:38:01;21.80;29.90
76967;DHT22;65904;52.278;20.972;2023-04-28T11:41:06;22.40;32.00
76967;DHT22;65904;52.278;20.972;2023-04-28T11:43:53;24.20;29.60
76967;DHT22;65904;52.278;20.972;2023-04-28T11:46:47;24.50;29.40
76967;DHT22;65904;52.278;20.972;2023-04-28T11:49:41;25.00;28.50
76967;DHT22;65904;52.278;20.972;2023-04-28T11:52:28;26.40;29.70
76967;DHT22;65904;52.278;20.972;2023-04-28T11:55:16;26.80;27.60
76967;DHT22;65904;52.278;20.972;2023-04-28T11:58:17;24.80;27.30
76967;DHT22;65904;52.278;20.972;2023-04-28T12:01:08;22.40;29.70
76967;DHT22;65904;52.278;20.972;2023-04-28T12:03:55;22.40;28.80
76967;DHT22;65904;52.278;20.972;2023-04-28T12:06:41;21.20;29.70
76967;DHT22;65904;52.278;20.972;2023-04-28T12:09:28;21.30;29.60
76967;DHT22;65904;52.278;20.972;2023-04-28T12:12:15;20.20;30.30
76967;DHT22;65904;52.278;20.972;2023-04-28T12:15:12;20.20;31.70
76967;DHT22;65904;52.278;20.972;2023-04-28T12:18:08;22.40;30.00
76967;DHT22;65904;52.278;20.972;2023-04-28T12:20:54;22.70;29.60
76967;DHT22;65904;52.278;20.972;2023-04-28T12:23:41;21.40;30.00
76967;DHT22;65904;52.278;20.972;2023-04-28T12:26:27;22.00;30.00
76967;DHT22;65904;52.278;20.972;2023-04-28T12:29:39;23.90;29.40
76967;DHT22;65904;52.278;20.972;2023-04-28T12:32:38;25.50;27.70
76967;DHT22;65904;52.278;20.972;2023-04-28T12:35:27;26.00;28.30
76967;DHT22;65904;52.278;20.972;2023-04-28T12:38:13;24.60;27.50
76967;DHT22;65904;52.278;20.972;2023-04-28T12:41:00;21.90;29.10
76967;DHT22;65904;52.278;20.972;2023-04-28T12:43:46;20.20;30.30
76967;DHT22;65904;52.278;20.972;2023-04-28T12:46:33;18.80;31.30
76967;DHT22;65904;52.278;20.972;2023-04-28T12:49:19;18.80;31.80
76967;DHT22;65904;52.278;20.972;2023-04-28T12:52:07;19.80;31.10
76967;DHT22;65904;52.278;20.972;2023-04-28T12:54:53;19.80;31.30
76967;DHT22;65904;52.278;20.972;2023-04-28T12:57:39;19.90;31.80
76967;DHT22;65904;52.278;20.972;2023-04-28T13:00:25;22.40;30.80
76967;DHT22;65904;52.278;20.972;2023-04-28T13:03:11;24.90;30.10
76967;DHT22;65904;52.278;20.972;2023-04-28T13:05:59;26.90;28.60
76967;DHT22;65904;52.278;20.972;2023-04-28T13:08:47;28.10;27.20
76967;DHT22;65904;52.278;20.972;2023-04-28T13:11:34;28.20;25.70
76967;DHT22;65904;52.278;20.972;2023-04-28T13:14:20;23.60;27.00
76967;DHT22;65904;52.278;20.972;2023-04-28T13:17:06;23.30;27.70
76967;DHT22;65904;52.278;20.972;2023-04-28T13:19:53;23.00;28.30
76967;DHT22;65904;52.278;20.972;2023-04-28T13:22:39;22.30;28.90
76967;DHT22;65904;52.278;20.972;2023-04-28T13:25:27;24.00;28.80
76967;DHT22;65904;52.278;20.972;2023-04-28T13:28:14;25.60;28.20
76967;DHT22;65904;52.278;20.972;2023-04-28T13:31:00;26.20;27.30
76967;DHT22;65904;52.278;20.972;2023-04-28T13:33:47;25.60;27.50
76967;DHT22;65904;52.278;20.972;2023-04-28T13:36:33;23.90;27.90
76967;DHT22;65904;52.278;20.972;2023-04-28T13:39:20;22.70;28.80
76967;DHT22;65904;52.278;20.972;2023-04-28T13:42:07;23.30;29.40
76967;DHT22;65904;52.278;20.972;2023-04-28T13:44:53;22.90;30.80
76967;DHT22;65904;52.278;20.972;2023-04-28T13:47:40;22.90;29.50
76967;DHT22;65904;52.278;20.972;2023-04-28T13:50:26;23.30;31.00
76967;DHT22;65904;52.278;20.972;2023-04-28T13:53:12;23.80;29.80
76967;DHT22;65904;52.278;20.972;2023-04-28T13:55:59;22.90;29.40
76967;DHT22;65904;52.278;20.972;2023-04-28T13:58:46;23.30;29.40
76967;DHT22;65904;52.278;20.972;2023-04-28T14:01:32;23.60;29.20
76967;DHT22;65904;52.278;20.972;2023-04-28T14:04:19;23.20;29.20
76967;DHT22;65904;52.278;20.972;2023-04-28T14:07:05;22.50;29.20
76967;DHT22;65904;52.278;20.972;2023-04-28T14:09:53;23.50;30.00
76967;DHT22;65904;52.278;20.972;2023-04-28T14:12:39;23.90;29.30
76967;DHT22;65904;52.278;20.972;2023-04-28T14:15:27;24.70;28.40
76967;DHT22;65904;52.278;20.972;2023-04-28T14:18:13;24.80;28.00
76967;DHT22;65904;52.278;20.972;2023-04-28T14:20:59;23.60;28.20
76967;DHT22;65904;52.278;20.972;2023-04-28T14:23:47;22.40;30.00
76967;DHT22;65904;52.278;20.972;2023-04-28T14:26:33;21.30;30.20
76967;DHT22;65904;52.278;20.972;2023-04-28T14:29:20;20.60;31.20
76967;DHT22;65904;52.278;20.972;2023-04-28T14:32:07;19.60;31.50
76967;DHT22;65904;52.278;20.972;2023-04-28T14:34:53;20.40;31.60
76967;DHT22;65904;52.278;20.972;2023-04-28T14:37:39;20.40;31.10
76967;DHT22;65904;52.278;20.972;2023-04-28T14:40:26;21.00;31.90
76967;DHT22;65904;52.278;20.972;2023-04-28T14:43:12;21.90;31.20
76967;DHT22;65904;52.278;20.972;2023-04-28T14:45:58;22.40;30.50
76967;DHT22;65904;52.278;20.972;2023-04-28T14:48:46;21.60;31.00
76967;DHT22;65904;52.278;20.972;2023-04-28T14:51:32;21.30;32.00
76967;DHT22;65904;52.278;20.972;2023-04-28T14:54:18;21.70;31.30
76967;DHT22;65904;52.278;20.972;2023-04-28T14:57:05;21.50;31.10
76967;DHT22;65904;52.278;20.972;2023-04-28T14:59:52;22.60;31.70
76967;DHT22;65904;52.278;20.972;2023-04-28T15:02:39;23.20;30.10
76967;DHT22;65904;52.278;20.972;2023-04-28T15:05:26;24.20;29.80
76967;DHT22;65904;52.278;20.972;2023-04-28T15:08:13;23.00;30.80
76967;DHT22;65904;52.278;20.972;2023-04-28T15:10:59;22.80;30.00
76967;DHT22;65904;52.278;20.972;2023-04-28T15:13:45;23.00;30.30
76967;DHT22;65904;52.278;20.972;2023-04-28T15:16:31;23.90;30.60
76967;DHT22;65904;52.278;20.972;2023-04-28T15:19:18;24.90;29.20
76967;DHT22;65904;52.278;20.972;2023-04-28T15:22:05;25.80;29.50
76967;DHT22;65904;52.278;20.972;2023-04-28T15:24:52;26.30;28.70
76967;DHT22;65904;52.278;20.972;2023-04-28T15:27:39;26.50;28.70
76967;DHT22;65904;52.278;20.972;2023-04-28T15:30:25;26.60;28.80
76967;DHT22;65904;52.278;20.972;2023-04-28T15:33:11;26.80;28.60
76967;DHT22;65904;52.278;20.972;2023-04-28T15:36:00;27.30;27.90
76967;DHT22;65904;52.278;20.972;2023-04-28T15:38:48;26.60;27.40
76967;DHT22;65904;52.278;20.972;2023-04-28T15:41:35;26.80;28.60
76967;DHT22;65904;52.278;20.972;2023-04-28T15:44:21;25.60;28.90
76967;DHT22;65904;52.278;20.972;2023-04-28T15:47:08;24.60;29.60
76967;DHT22;65904;52.278;20.972;2023-04-28T15:49:55;23.50;29.70
76967;DHT22;65904;52.278;20.972;2023-04-28T15:52:42;22.30;30.50
76967;DHT22;65904;52.278;20.972;2023-04-28T15:55:31;21.40;33.00
76967;DHT22;65904;52.278;20.972;2023-04-28T15:58:18;21.30;32.90
76967;DHT22;65904;52.278;20.972;2023-04-28T16:01:04;21.60;31.70
76967;DHT22;65904;52.278;20.972;2023-04-28T16:03:51;21.90;31.60
76967;DHT22;65904;52.278;20.972;2023-04-28T16:06:36;22.00;31.50
76967;DHT22;65904;52.278;20.972;2023-04-28T16:09:23;22.30;31.40
76967;DHT22;65904;52.278;20.972;2023-04-28T16:12:10;22.70;31.30
76967;DHT22;65904;52.278;20.972;2023-04-28T16:14:57;22.50;32.20
76967;DHT22;65904;52.278;20.972;2023-04-28T16:17:43;21.80;32.30
76967;DHT22;65904;52.278;20.972;2023-04-28T16:20:29;20.90;32.60
76967;DHT22;65904;52.278;20.972;2023-04-28T16:23:15;20.20;33.10
76967;DHT22;65904;52.278;20.972;2023-04-28T16:26:03;19.80;34.50
76967;DHT22;65904;52.278;20.972;2023-04-28T16:28:50;19.50;37.00
76967;DHT22;65904;52.278;20.972;2023-04-28T16:31:37;19.90;35.20
76967;DHT22;65904;52.278;20.972;2023-04-28T16:34:22;19.80;36.70
76967;DHT22;65904;52.278;20.972;2023-04-28T16:37:09;20.00;36.50
76967;DHT22;65904;52.278;20.972;2023-04-28T16:39:55;19.70;36.40
76967;DHT22;65904;52.278;20.972;2023-04-28T16:42:41;19.30;37.10
76967;DHT22;65904;52.278;20.972;2023-04-28T16:45:30;19.10;37.50
76967;DHT22;65904;52.278;20.972;2023-04-28T16:48:18;19.10;38.50
76967;DHT22;65904;52.278;20.972;2023-04-28T16:51:04;18.50;38.30
76967;DHT22;65904;52.278;20.972;2023-04-28T16:53:54;17.80;38.90
76967;DHT22;65904;52.278;20.972;2023-04-28T16:56:39;17.10;41.30
76967;DHT22;65904;52.278;20.972;2023-04-28T16:59:26;16.50;41.90
76967;DHT22;65904;52.278;20.972;2023-04-28T17:02:14;16.30;42.70
76967;DHT22;65904;52.278;20.972;2023-04-28T17:05:01;16.30;43.10
76967;DHT22;65904;52.278;20.972;2023-04-28T17:07:47;16.10;43.50
76967;DHT22;65904;52.278;20.972;2023-04-28T17:10:35;15.80;44.40
76967;DHT22;65904;52.278;20.972;2023-04-28T17:13:22;15.50;43.70
76967;DHT22;65904;52.278;20.972;2023-04-28T17:16:08;15.10;43.90
76967;DHT22;65904;52.278;20.972;2023-04-28T17:18:56;14.80;44.50
76967;DHT22;65904;52.278;20.972;2023-04-28T17:21:42;14.50;45.00
76967;DHT22;65904;52.278;20.972;2023-04-28T17:24:29;14.30;46.10
76967;DHT22;65904;52.278;20.972;2023-04-28T17:27:16;14.20;48.10
76967;DHT22;65904;52.278;20.972;2023-04-28T17:30:03;14.00;49.40
76967;DHT22;65904;52.278;20.972;2023-04-28T17:32:50;13.80;51.90
76967;DHT22;65904;52.278;20.972;2023-04-28T17:35:37;13.60;52.70